Time;durP1;ratioP1;P1;durP2;ratioP2;P2;SDS_P1;SDS_P2;PMS_P1;PMS_P2;Temp;Humidity;BMP_temperature;BMP_pressure;BME280_temperature;BME280_humidity;BME280_pressure;Samples;Min_cycle;Max_cycle;Signal;HPM_P1;HPM_P2
2022/08/26 00:00:56;;;;;;;18.60;12.40;;;21.40;99.90;;;;;;4976000;28;20237;-74
2022/08/26 00:03:22;;;;;;;22.33;13.30;;;21.30;99.90;;;;;;4966309;28;20078;-74
2022/08/26 00:05:49;;;;;;;18.52;12.15;;;21.30;99.90;;;;;;4933851;29;20282;-74
2022/08/26 00:08:15;;;;;;;20.25;11.98;;;21.30;99.90;;;;;;4958679;29;20250;-72
2022/08/26 00:10:41;;;;;;;18.23;12.63;;;21.30;99.90;;;;;;4972329;28;20031;-71
2022/08/26 00:13:09;;;;;;;17.73;11.55;;;21.30;99.90;;;;;;4951665;28;20455;-72
2022/08/26 00:15:34;;;;;;;17.63;12.10;;;21.30;99.90;;;;;;4946114;29;20032;-72
2022/08/26 00:18:00;;;;;;;18.70;12.67;;;21.30;99.90;;;;;;4947099;29;20027;-71
2022/08/26 00:20:29;;;;;;;16.67;12.03;;;21.20;99.90;;;;;;4947237;29;20459;-72
2022/08/26 00:22:55;;;;;;;18.33;11.82;;;21.30;99.90;;;;;;4930244;29;20047;-71
2022/08/26 00:25:21;;;;;;;15.67;11.87;;;21.20;99.90;;;;;;4946787;29;20027;-71
2022/08/26 00:27:46;;;;;;;19.77;13.43;;;21.20;99.90;;;;;;4945826;29;20354;-72
2022/08/26 00:30:16;;;;;;;20.20;13.13;;;21.10;99.90;;;;;;4959213;28;20278;-73
2022/08/26 00:32:42;;;;;;;16.30;11.18;;;21.10;99.90;;;;;;4940105;29;20756;-72
2022/08/26 00:35:09;;;;;;;22.77;13.30;;;21.10;99.90;;;;;;4964984;28;20047;-71
2022/08/26 00:37:34;;;;;;;;;;;21.00;99.90;;;;;;4965137;28;20094;-72
2022/08/26 00:40:00;;;;;;;18.63;11.57;;;21.00;99.90;;;;;;4979357;28;19913;-72
2022/08/26 00:42:26;;;;;;;17.03;12.30;;;21.00;99.90;;;;;;4985313;28;20037;-72
2022/08/26 00:44:52;;;;;;;17.97;12.70;;;21.00;99.90;;;;;;4984896;28;20031;-71
2022/08/26 00:47:35;;;;;;;16.58;12.27;;;20.90;99.90;;;;;;4985137;28;20094;-71
2022/08/26 00:50:03;;;;;;;19.77;12.95;;;20.90;99.90;;;;;;4984125;28;20037;-72
2022/08/26 00:52:29;;;;;;;18.15;12.63;;;20.90;99.90;;;;;;4984070;28;20031;-72
2022/08/26 00:55:21;;;;;;;18.57;12.97;;;20.80;99.90;;;;;;4984527;28;20034;-72
2022/08/26 00:57:47;;;;;;;16.05;11.93;;;20.80;99.90;;;;;;4999881;28;20084;-72
2022/08/26 01:00:17;;;;;;;19.67;12.98;;;20.80;99.90;;;;;;4983818;28;20030;-72
2022/08/26 01:02:45;;;;;;;17.52;12.98;;;20.80;99.90;;;;;;4999869;28;20027;-71
2022/08/26 01:05:11;;;;;;;17.05;12.20;;;20.80;99.90;;;;;;4962022;29;20023;-71
2022/08/26 01:07:37;;;;;;;17.93;12.53;;;20.70;99.90;;;;;;4965608;28;20255;-71
2022/08/26 01:10:07;;;;;;;16.90;11.88;;;20.70;99.90;;;;;;4977956;28;20259;-71
2022/08/26 01:12:38;;;;;;;18.13;13.00;;;20.60;99.90;;;;;;4952084;28;20030;-71
2022/08/26 01:15:06;;;;;;;18.10;12.48;;;20.60;99.90;;;;;;4984625;28;20293;-71
2022/08/26 01:17:32;;;;;;;22.08;12.55;;;20.60;99.90;;;;;;4983444;28;20023;-72
2022/08/26 01:20:09;;;;;;;17.47;13.30;;;20.60;99.90;;;;;;4983600;28;20026;-72
2022/08/26 01:22:54;;;;;;;23.02;14.20;;;20.60;99.90;;;;;;4983415;28;20023;-71
2022/08/26 01:25:20;;;;;;;18.98;13.20;;;20.60;99.90;;;;;;4983597;28;20137;-71
2022/08/26 01:27:46;;;;;;;21.73;13.90;;;20.50;99.90;;;;;;4951346;28;20019;-72
2022/08/26 01:30:12;;;;;;;18.03;12.40;;;20.50;99.90;;;;;;4984547;28;20034;-71
2022/08/26 01:32:38;;;;;;;;;;;20.50;99.90;;;;;;4983899;28;20242;-72
2022/08/26 01:35:05;;;;;;;18.13;12.27;;;20.50;99.90;;;;;;4983979;28;19914;-71
2022/08/26 01:37:35;;;;;;;20.30;12.52;;;20.40;99.90;;;;;;4992198;23;20047;-71
2022/08/26 01:40:01;;;;;;;20.95;12.80;;;20.40;99.90;;;;;;4928734;29;20091;-71
2022/08/26 01:42:27;;;;;;;20.05;12.73;;;20.40;99.90;;;;;;4944670;29;20034;-71
2022/08/26 01:45:13;;;;;;;16.83;12.33;;;20.30;99.90;;;;;;4935650;29;20044;-71
2022/08/26 01:47:39;;;;;;;19.95;12.35;;;20.30;99.90;;;;;;4926301;29;20067;-71
2022/08/26 01:50:12;;;;;;;19.93;12.73;;;20.30;99.90;;;;;;4926513;29;20048;-71
2022/08/26 01:52:40;;;;;;;20.42;13.27;;;20.20;99.90;;;;;;4925261;29;20332;-71
2022/08/26 01:55:07;;;;;;;21.38;11.90;;;20.20;99.90;;;;;;4925547;29;20028;-70
2022/08/26 01:57:33;;;;;;;20.10;12.80;;;20.20;99.90;;;;;;4925429;29;20039;-70
2022/08/26 02:00:00;;;;;;;18.47;13.13;;;20.20;99.90;;;;;;4925337;29;20024;-70
2022/08/26 02:02:26;;;;;;;17.52;11.80;;;20.10;99.90;;;;;;4925386;29;20028;-70
2022/08/26 02:04:56;;;;;;;17.73;12.53;;;20.10;99.90;;;;;;4926038;29;20084;-70
2022/08/26 02:07:21;;;;;;;22.15;13.18;;;20.10;99.90;;;;;;4925357;29;20020;-70
2022/08/26 02:09:48;;;;;;;21.33;13.37;;;20.10;99.90;;;;;;4909454;29;20091;-70
2022/08/26 02:12:14;;;;;;;22.10;12.35;;;20.00;99.90;;;;;;4926128;29;20028;-70
2022/08/26 02:14:46;;;;;;;19.88;13.80;;;20.00;99.90;;;;;;4893341;29;20054;-70
2022/08/26 02:17:11;;;;;;;19.95;12.57;;;20.00;99.90;;;;;;4925497;29;20071;-71
2022/08/26 02:19:39;;;;;;;21.90;13.47;;;19.90;99.90;;;;;;4924951;29;20039;-72
2022/08/26 02:22:12;;;;;;;17.00;11.45;;;19.90;99.90;;;;;;4924883;29;20339;-71
2022/08/26 02:24:58;;;;;;;17.08;12.85;;;19.90;99.90;;;;;;4909648;29;20042;-71
2022/08/26 02:27:31;;;;;;;22.83;13.55;;;19.80;99.90;;;;;;4925416;29;20020;-70
2022/08/26 02:30:22;;;;;;;18.85;12.13;;;19.80;99.90;;;;;;4925652;29;20263;-70
2022/08/26 02:32:48;;;;;;;16.48;12.20;;;19.80;99.90;;;;;;4927770;29;20024;-71
2022/08/26 02:35:14;;;;;;;21.00;13.33;;;19.70;99.90;;;;;;4925834;29;20027;-70
2022/08/26 02:37:40;;;;;;;24.60;13.75;;;19.70;99.90;;;;;;4931358;29;20050;-71
2022/08/26 02:40:07;;;;;;;20.38;12.73;;;19.70;99.90;;;;;;4944666;29;20331;-70
2022/08/26 02:42:33;;;;;;;21.20;13.68;;;19.70;99.90;;;;;;4944709;29;20078;-70
2022/08/26 02:44:59;;;;;;;23.30;13.37;;;19.70;99.90;;;;;;4924678;29;20028;-70
2022/08/26 02:47:25;;;;;;;20.40;13.53;;;19.70;99.90;;;;;;4924771;29;20087;-70
2022/08/26 02:49:51;;;;;;;18.37;12.63;;;19.70;99.90;;;;;;4924143;29;20092;-70
2022/08/26 02:52:17;;;;;;;20.63;13.37;;;19.70;99.90;;;;;;4925430;29;20047;-70
2022/08/26 02:54:43;;;;;;;21.55;13.18;;;19.70;99.90;;;;;;4924234;29;20038;-71
2022/08/26 02:57:09;;;;;;;19.33;13.17;;;19.60;99.90;;;;;;4928540;29;20040;-70
2022/08/26 02:59:35;;;;;;;20.15;13.40;;;19.60;99.90;;;;;;4929537;29;20280;-70
2022/08/26 03:02:01;;;;;;;18.30;13.17;;;19.60;99.90;;;;;;4929525;29;20099;-70
2022/08/26 03:04:28;;;;;;;18.92;12.70;;;19.60;99.90;;;;;;4929194;29;20039;-71
2022/08/26 03:06:55;;;;;;;18.45;13.40;;;19.60;99.90;;;;;;4929305;29;20091;-71
2022/08/26 03:09:21;;;;;;;21.98;14.50;;;19.50;99.90;;;;;;4946929;29;20443;-70
2022/08/26 03:11:47;;;;;;;20.40;13.48;;;19.50;99.90;;;;;;4931417;29;20031;-71
2022/08/26 03:14:13;;;;;;;23.07;14.53;;;19.50;99.90;;;;;;4947441;29;20032;-70
2022/08/26 03:16:39;;;;;;;20.97;14.60;;;19.50;99.90;;;;;;4948168;29;20345;-71
2022/08/26 03:19:06;;;;;;;21.47;13.87;;;19.50;99.90;;;;;;4947218;29;20031;-71
2022/08/26 03:21:32;;;;;;;24.42;13.15;;;19.50;99.90;;;;;;4948235;29;20042;-70
2022/08/26 03:23:58;;;;;;;24.57;15.10;;;19.50;99.90;;;;;;4947815;29;20334;-71
2022/08/26 03:26:24;;;;;;;20.92;14.20;;;19.50;99.90;;;;;;4946849;29;20027;-71
2022/08/26 03:31:34;;;;;;;19.45;13.77;;;19.40;99.90;;;;;;4948083;29;20290;-70
2022/08/26 03:34:00;;;;;;;21.45;14.88;;;19.40;99.90;;;;;;4946661;29;20109;-70
2022/08/26 03:36:26;;;;;;;19.40;14.40;;;19.40;99.90;;;;;;4946769;29;20346;-70
2022/08/26 03:38:52;;;;;;;21.03;14.47;;;19.30;99.90;;;;;;4947855;29;20346;-70
2022/08/26 03:41:18;;;;;;;21.10;13.60;;;19.30;99.90;;;;;;4930872;29;20035;-71
2022/08/26 03:43:43;;;;;;;20.83;14.23;;;19.30;99.90;;;;;;4947578;29;20034;-71
2022/08/26 03:46:10;;;;;;;23.93;14.83;;;19.30;99.90;;;;;;4947837;29;20338;-71
2022/08/26 03:48:36;;;;;;;20.65;14.95;;;19.20;99.90;;;;;;4946642;29;20366;-70
2022/08/26 03:51:03;;;;;;;17.73;13.45;;;19.20;99.90;;;;;;4946571;29;20066;-71
2022/08/26 03:53:29;;;;;;;;;;;19.20;99.90;;;;;;4946798;29;20325;-72
2022/08/26 03:55:55;;;;;;;22.00;15.05;;;19.20;99.90;;;;;;4947392;29;19991;-70
2022/08/26 03:58:22;;;;;;;22.27;14.73;;;19.20;99.90;;;;;;4930585;29;20023;-71
2022/08/26 04:00:50;;;;;;;21.42;15.23;;;19.20;99.90;;;;;;4930925;29;20034;-70
2022/08/26 04:03:56;;;;;;;27.13;16.40;;;19.20;99.90;;;;;;4914779;29;20199;-71
2022/08/26 04:06:02;;;;;;;23.52;14.20;;;19.20;99.90;;;;;;4947283;29;20031;-71
2022/08/26 04:08:28;;;;;;;23.95;14.98;;;19.20;99.90;;;;;;4947022;29;20023;-71
2022/08/26 04:10:54;;;;;;;24.33;14.73;;;19.20;99.90;;;;;;4944980;29;20058;-70
2022/08/26 04:13:20;;;;;;;21.43;14.83;;;19.20;99.90;;;;;;4946119;29;20020;-70
2022/08/26 04:15:45;;;;;;;21.47;15.17;;;19.20;99.90;;;;;;4930405;29;20451;-69
2022/08/26 04:18:11;;;;;;;26.20;15.50;;;19.20;99.90;;;;;;4947551;29;20051;-70
2022/08/26 04:20:38;;;;;;;22.17;14.87;;;19.20;99.90;;;;;;4945973;29;20451;-71
2022/08/26 04:23:03;;;;;;;21.55;14.38;;;19.20;99.90;;;;;;4929964;29;20027;-70
2022/08/26 04:25:29;;;;;;;23.10;15.00;;;19.20;99.90;;;;;;4946884;29;20027;-70
2022/08/26 04:27:55;;;;;;;23.43;14.30;;;19.20;99.90;;;;;;4946976;29;20080;-70
2022/08/26 04:30:21;;;;;;;19.87;14.77;;;19.10;99.90;;;;;;4947057;29;20040;-70
2022/08/26 04:32:47;;;;;;;23.00;14.83;;;19.10;99.90;;;;;;4944594;29;20027;-71
2022/08/26 04:35:13;;;;;;;;;;;19.10;99.90;;;;;;4941650;29;20016;-71
2022/08/26 04:37:39;;;;;;;24.25;15.30;;;19.10;99.90;;;;;;4941507;29;20023;-71
2022/08/26 04:40:05;;;;;;;21.00;14.17;;;19.10;99.90;;;;;;4910568;29;20028;-70
2022/08/26 04:42:32;;;;;;;23.48;14.32;;;19.00;99.90;;;;;;4926561;29;20027;-71
2022/08/26 04:44:58;;;;;;;27.42;15.75;;;19.10;99.90;;;;;;4926301;29;20042;-71
2022/08/26 04:47:23;;;;;;;21.70;15.10;;;19.00;99.90;;;;;;4927122;29;20027;-71
2022/08/26 04:49:52;;;;;;;21.57;14.27;;;19.00;99.90;;;;;;4926963;29;20035;-71
2022/08/26 04:52:17;;;;;;;22.25;15.25;;;19.00;99.90;;;;;;4928417;29;20028;-71
2022/08/26 04:54:43;;;;;;;25.67;16.13;;;19.00;99.90;;;;;;4927300;29;20083;-71
2022/08/26 04:57:09;;;;;;;20.33;14.07;;;19.00;99.90;;;;;;4927430;29;20323;-71
2022/08/26 04:59:34;;;;;;;18.63;13.13;;;19.00;99.90;;;;;;4927468;29;20352;-71
2022/08/26 05:02:02;;;;;;;27.10;13.83;;;19.00;99.90;;;;;;4930677;29;20327;-71
2022/08/26 05:04:28;;;;;;;24.48;14.25;;;19.10;99.90;;;;;;4927007;29;20032;-71
2022/08/26 05:06:54;;;;;;;25.98;14.35;;;19.10;99.90;;;;;;4942030;29;20027;-71
2022/08/26 05:09:19;;;;;;;20.67;14.40;;;19.10;99.90;;;;;;4941737;29;20342;-71
2022/08/26 05:11:46;;;;;;;23.63;14.73;;;19.10;99.90;;;;;;4945971;29;20023;-71
2022/08/26 05:14:12;;;;;;;27.50;15.40;;;19.10;99.90;;;;;;4928979;29;20043;-71
2022/08/26 05:16:37;;;;;;;22.70;15.80;;;19.10;99.90;;;;;;4945895;29;20339;-71
2022/08/26 05:19:05;;;;;;;21.27;13.60;;;19.10;99.90;;;;;;4942512;29;20031;-71
2022/08/26 05:21:31;;;;;;;21.63;14.10;;;19.10;99.90;;;;;;4908109;29;20335;-71
2022/08/26 05:23:57;;;;;;;22.60;14.53;;;19.20;99.90;;;;;;4907635;29;20033;-71
2022/08/26 05:26:25;;;;;;;23.17;15.32;;;19.20;99.90;;;;;;4922370;29;20386;-71
2022/08/26 05:28:51;;;;;;;22.73;14.70;;;19.20;99.90;;;;;;4906765;29;20029;-71
2022/08/26 05:31:23;;;;;;;20.05;13.40;;;19.20;99.90;;;;;;4908018;29;20312;-71
2022/08/26 05:33:49;;;;;;;23.48;15.10;;;19.30;99.90;;;;;;4922049;29;20036;-71
2022/08/26 05:36:17;;;;;;;23.70;15.13;;;19.20;99.90;;;;;;4907933;29;20034;-71
2022/08/26 05:38:43;;;;;;;25.02;15.52;;;19.20;99.90;;;;;;4922259;29;20032;-70
2022/08/26 05:41:15;;;;;;;20.90;14.87;;;19.20;99.90;;;;;;4907518;29;20068;-71
2022/08/26 05:43:40;;;;;;;19.95;14.18;;;19.30;99.90;;;;;;4935788;29;20252;-70
2022/08/26 05:46:06;;;;;;;24.13;15.73;;;19.30;99.90;;;;;;4926396;29;20036;-70
2022/08/26 05:48:32;;;;;;;20.27;14.48;;;19.40;99.90;;;;;;4936248;29;20037;-70
2022/08/26 05:51:04;;;;;;;25.23;15.30;;;19.40;99.90;;;;;;4941007;29;20035;-69
2022/08/26 05:53:30;;;;;;;25.83;15.73;;;19.40;99.90;;;;;;4933795;29;20028;-70
2022/08/26 05:55:56;;;;;;;23.83;15.43;;;19.50;99.90;;;;;;4922312;29;20039;-72
2022/08/26 05:58:22;;;;;;;22.83;16.07;;;19.50;99.90;;;;;;4926340;29;20099;-72
2022/08/26 06:01:00;;;;;;;21.83;13.93;;;19.50;99.90;;;;;;4923885;29;20040;-72
2022/08/26 06:03:26;;;;;;;24.25;15.48;;;19.50;99.90;;;;;;4924040;29;20095;-73
2022/08/26 06:05:51;;;;;;;24.08;15.30;;;19.60;99.90;;;;;;4924164;29;20055;-72
2022/08/26 06:08:19;;;;;;;24.63;15.57;;;19.70;99.90;;;;;;4925190;29;20071;-73
2022/08/26 06:10:53;;;;;;;24.50;15.00;;;19.70;99.90;;;;;;4936288;29;20058;-72
2022/08/26 06:13:25;;;;;;;27.77;16.25;;;19.80;99.90;;;;;;4928592;29;20042;-73
2022/08/26 06:15:51;;;;;;;22.25;15.68;;;19.80;99.90;;;;;;4929025;29;20030;-73
2022/08/26 06:18:23;;;;;;;24.15;15.80;;;19.90;99.90;;;;;;4940892;29;20055;-73
2022/08/26 06:20:49;;;;;;;29.02;15.05;;;20.00;99.90;;;;;;4934417;29;20042;-70
2022/08/26 06:26:01;;;;;;;26.08;15.32;;;20.10;99.90;;;;;;4944425;29;20034;-72
2022/08/26 06:28:27;;;;;;;21.42;14.95;;;20.20;99.90;;;;;;4927593;29;20235;-72
2022/08/26 06:30:56;;;;;;;21.90;14.37;;;20.30;99.90;;;;;;4943473;29;20040;-71
2022/08/26 06:33:23;;;;;;;22.83;14.90;;;20.40;99.90;;;;;;4943001;29;20031;-72
2022/08/26 06:35:49;;;;;;;26.27;15.00;;;20.40;99.90;;;;;;4944231;29;20026;-72
2022/08/26 06:38:16;;;;;;;27.40;15.95;;;20.50;99.90;;;;;;4932202;29;20035;-71
2022/08/26 06:40:47;;;;;;;32.55;16.88;;;20.50;99.90;;;;;;4924422;29;20083;-71
2022/08/26 06:43:17;;;;;;;21.20;14.75;;;20.50;99.90;;;;;;4908316;29;20107;-72
2022/08/26 06:45:44;;;;;;;27.17;15.27;;;20.60;99.90;;;;;;4924260;29;20066;-72
2022/08/26 06:48:11;;;;;;;25.90;15.35;;;20.60;99.90;;;;;;4923931;29;20028;-71
2022/08/26 06:50:37;;;;;;;23.98;15.10;;;20.70;99.90;;;;;;4924291;29;20455;-71
2022/08/26 06:53:03;;;;;;;24.60;15.63;;;20.70;99.90;;;;;;4926320;29;20031;-71
2022/08/26 06:55:28;;;;;;;22.87;15.53;;;20.80;99.90;;;;;;4943480;29;20024;-70
2022/08/26 06:57:55;;;;;;;26.67;15.43;;;20.80;99.90;;;;;;4944108;29;20250;-71
2022/08/26 07:00:21;;;;;;;;;;;20.90;99.90;;;;;;4941643;29;20058;-73
2022/08/26 07:02:47;;;;;;;27.42;15.75;;;20.90;99.90;;;;;;4904825;29;19916;-73
2022/08/26 07:05:12;;;;;;;24.40;15.93;;;21.00;99.90;;;;;;4905059;29;20080;-73
2022/08/26 07:07:38;;;;;;;26.33;14.77;;;21.00;99.90;;;;;;4920778;29;20028;-73
2022/08/26 07:10:07;;;;;;;27.60;15.50;;;21.00;99.90;;;;;;4931271;29;20075;-73
2022/08/26 07:12:34;;;;;;;26.52;15.07;;;21.10;99.90;;;;;;4923886;29;20024;-73
2022/08/26 07:15:00;;;;;;;27.08;15.63;;;21.20;99.90;;;;;;4924719;29;20091;-73
2022/08/26 07:17:27;;;;;;;24.00;16.57;;;21.20;99.90;;;;;;4923833;29;20039;-72
2022/08/26 07:19:52;;;;;;;23.23;15.48;;;21.30;99.90;;;;;;4939754;29;20275;-71
2022/08/26 07:22:18;;;;;;;26.60;16.60;;;21.30;99.90;;;;;;4943161;29;20067;-72
2022/08/26 07:24:44;;;;;;;27.17;15.57;;;21.40;99.90;;;;;;4943089;29;20034;-70
2022/08/26 07:27:13;;;;;;;35.35;16.00;;;21.40;99.90;;;;;;4943142;29;20309;-71
2022/08/26 07:29:41;;;;;;;23.15;14.82;;;21.50;99.90;;;;;;4943309;29;20047;-71
2022/08/26 07:32:07;;;;;;;29.77;14.15;;;21.60;99.90;;;;;;4946953;29;20200;-71
2022/08/26 07:34:33;;;;;;;25.75;13.60;;;21.70;99.90;;;;;;4923951;29;20307;-71
2022/08/26 07:36:59;;;;;;;23.83;13.75;;;21.80;99.90;;;;;;4925063;29;20028;-72
2022/08/26 07:39:25;;;;;;;25.05;14.98;;;21.90;99.90;;;;;;4924352;29;20032;-72
2022/08/26 07:41:51;;;;;;;;;;;21.90;99.90;;;;;;4925282;29;20107;-71
2022/08/26 07:44:18;;;;;;;25.00;13.05;;;22.00;99.90;;;;;;4927233;29;19935;-72
2022/08/26 07:46:44;;;;;;;;;;;22.10;99.90;;;;;;4927795;29;20263;-70
2022/08/26 07:49:10;;;;;;;31.63;14.40;;;22.20;99.90;;;;;;4927464;29;19916;-71
2022/08/26 07:51:36;;;;;;;20.52;12.00;;;22.30;99.90;;;;;;4927524;29;20020;-71
2022/08/26 07:54:03;;;;;;;37.03;15.43;;;22.40;99.90;;;;;;4926159;29;20122;-71
2022/08/26 07:56:29;;;;;;;23.38;15.23;;;22.50;99.90;;;;;;4925997;29;20028;-72
2022/08/26 07:58:55;;;;;;;26.07;15.13;;;22.60;99.90;;;;;;4927338;29;20027;-71
2022/08/26 08:01:24;;;;;;;27.70;12.97;;;22.70;99.90;;;;;;4933220;29;20024;-71
2022/08/26 08:03:50;;;;;;;21.50;13.43;;;22.80;99.90;;;;;;4944922;29;20023;-71
2022/08/26 08:06:21;;;;;;;20.67;12.50;;;22.90;99.90;;;;;;4945177;29;20024;-71
2022/08/26 08:08:48;;;;;;;23.42;12.18;;;23.10;99.90;;;;;;4944999;29;20032;-72
2022/08/26 08:11:13;;;;;;;29.40;13.63;;;23.20;99.90;;;;;;4928233;29;20329;-72
2022/08/26 08:13:39;;;;;;;19.77;13.57;;;23.30;99.90;;;;;;4945983;29;20092;-71
2022/08/26 08:16:06;;;;;;;23.90;13.20;;;23.40;99.90;;;;;;4946112;29;20349;-71
2022/08/26 08:18:32;;;;;;;21.70;13.07;;;23.50;99.90;;;;;;4933076;29;20094;-71
2022/08/26 08:21:01;;;;;;;20.57;12.40;;;23.60;99.90;;;;;;4927187;29;20338;-72
2022/08/26 08:23:28;;;;;;;21.85;12.60;;;23.70;99.90;;;;;;4926812;29;20292;-71
2022/08/26 08:26:05;;;;;;;25.65;13.23;;;23.80;99.90;;;;;;4925769;29;20035;-70
2022/08/26 08:28:31;;;;;;;;;;;23.90;99.90;;;;;;4926325;29;20036;-71
2022/08/26 08:30:56;;;;;;;21.58;11.23;;;23.90;99.90;;;;;;4926931;29;20278;-71
2022/08/26 08:33:22;;;;;;;20.92;12.25;;;24.10;99.90;;;;;;4926625;29;20051;-71
2022/08/26 08:35:48;;;;;;;23.75;12.38;;;24.20;99.90;;;;;;4925976;29;20032;-71
2022/08/26 08:38:14;;;;;;;22.65;12.30;;;24.20;99.90;;;;;;4888628;29;1086749;-72
2022/08/26 08:40:41;;;;;;;17.75;12.63;;;24.30;99.90;;;;;;4930867;29;20020;-72
2022/08/26 08:43:12;;;;;;;21.67;12.48;;;24.30;99.90;;;;;;4926782;29;20028;-72
2022/08/26 08:45:51;;;;;;;25.38;11.93;;;24.30;99.90;;;;;;4927426;29;20284;-71
2022/08/26 08:48:28;;;;;;;27.08;12.70;;;24.30;99.90;;;;;;4926775;29;20035;-71
2022/08/26 08:51:22;;;;;;;32.20;12.23;;;24.40;99.90;;;;;;4892865;29;20028;-71
2022/08/26 08:53:48;;;;;;;19.85;10.48;;;24.50;99.90;;;;;;4897531;29;20068;-71
2022/08/26 08:57:07;;;;;;;24.20;11.27;;;24.50;99.90;;;;;;4923079;29;20028;-71
2022/08/26 08:59:34;;;;;;;19.10;10.70;;;24.60;99.90;;;;;;4919902;29;20221;-72
2022/08/26 09:02:17;;;;;;;21.58;11.15;;;24.80;99.90;;;;;;4907655;29;20088;-71
2022/08/26 09:05:21;;;;;;;18.45;9.73;;;24.80;99.90;;;;;;4922099;29;20052;-71
2022/08/26 09:08:07;;;;;;;22.52;10.55;;;25.00;99.90;;;;;;4923133;29;20027;-71
2022/08/26 09:10:47;;;;;;;19.77;10.77;;;25.20;99.90;;;;;;4922663;29;20036;-72
2022/08/26 09:13:14;;;;;;;24.30;10.88;;;25.20;99.90;;;;;;4891633;29;20044;-71
2022/08/26 09:16:01;;;;;;;19.98;10.77;;;25.40;99.90;;;;;;4907160;29;20072;-71
2022/08/26 09:19:19;;;;;;;21.53;11.93;;;25.40;99.90;;;;;;4908148;29;20033;-72
2022/08/26 09:21:45;;;;;;;29.02;12.55;;;25.50;99.90;;;;;;4917614;29;20255;-71
2022/08/26 09:24:11;;;;;;;23.40;10.93;;;25.50;99.90;;;;;;4926811;29;20036;-71
2022/08/26 09:26:39;;;;;;;24.42;11.55;;;25.60;99.90;;;;;;4926738;29;20040;-71
2022/08/26 09:29:24;;;;;;;20.80;11.20;;;25.70;99.90;;;;;;4926889;29;20024;-72
2022/08/26 09:31:51;;;;;;;16.20;11.32;;;25.80;99.90;;;;;;4923951;29;20016;-73
2022/08/26 09:34:22;;;;;;;21.42;10.75;;;25.80;99.90;;;;;;4925952;29;20327;-71
2022/08/26 09:36:50;;;;;;;19.92;11.07;;;25.90;99.90;;;;;;4925898;29;20402;-70
2022/08/26 09:39:33;;;;;;;21.48;11.48;;;25.90;99.90;;;;;;4927328;29;20032;-73
2022/08/26 09:42:18;;;;;;;22.65;11.75;;;25.90;99.90;;;;;;4936273;29;20323;-71
2022/08/26 09:45:07;;;;;;;30.38;12.05;;;25.90;99.90;;;;;;4932364;29;20043;-72
2022/08/26 09:47:46;;;;;;;20.52;11.20;;;26.00;99.90;;;;;;4925037;29;20024;-71
2022/08/26 09:50:37;;;;;;;22.08;10.32;;;26.10;99.90;;;;;;4926837;29;20020;-72
2022/08/26 09:53:20;;;;;;;22.80;9.82;;;26.30;99.90;;;;;;4922601;29;20024;-71
2022/08/26 09:55:48;;;;;;;20.45;11.27;;;26.40;99.90;;;;;;4903543;29;20051;-72
2022/08/26 09:58:35;;;;;;;22.70;10.95;;;26.50;99.90;;;;;;4924888;29;20040;-72
2022/08/26 10:01:04;;;;;;;17.55;10.32;;;26.60;99.90;;;;;;4940878;29;20071;-72
2022/08/26 10:03:35;;;;;;;25.20;11.07;;;26.60;99.90;;;;;;4925562;29;20035;-74
2022/08/26 10:06:03;;;;;;;22.35;9.82;;;26.60;99.90;;;;;;4925248;29;20304;-74
2022/08/26 10:08:36;;;;;;;23.90;10.30;;;26.60;99.90;;;;;;4925292;29;20028;-72
2022/08/26 10:11:21;;;;;;;20.42;10.27;;;26.60;99.90;;;;;;4939889;29;20289;-69
2022/08/26 10:13:57;;;;;;;21.42;10.68;;;26.60;99.90;;;;;;4914618;29;20054;-71
2022/08/26 10:16:25;;;;;;;21.58;9.10;;;26.60;99.90;;;;;;4913065;29;20047;-72
2022/08/26 10:19:05;;;;;;;26.25;10.48;;;26.60;99.90;;;;;;4943274;29;20311;-75
2022/08/26 10:21:49;;;;;;;21.95;10.40;;;26.70;99.90;;;;;;4943104;29;20462;-73
2022/08/26 10:24:24;;;;;;;20.73;9.63;;;26.70;99.90;;;;;;4943315;29;20032;-72
2022/08/26 10:27:29;;;;;;;19.05;10.35;;;26.80;99.90;;;;;;4912845;29;20034;-73
2022/08/26 10:30:19;;;;;;;20.52;10.90;;;26.90;99.90;;;;;;4919383;29;20050;-72
2022/08/26 10:32:49;;;;;;;25.02;9.80;;;27.00;99.90;;;;;;4923139;29;20032;-70
2022/08/26 10:35:16;;;;;;;21.48;10.02;;;27.00;99.90;;;;;;4908709;29;20369;-73
2022/08/26 10:37:52;;;;;;;17.27;9.75;;;27.00;99.90;;;;;;4924395;29;20028;-68
2022/08/26 10:40:27;;;;;;;24.88;9.75;;;27.20;99.90;;;;;;4908831;29;20036;-68
2022/08/26 10:43:02;;;;;;;19.13;10.52;;;27.40;99.90;;;;;;4924380;29;20417;-68
2022/08/26 10:45:31;;;;;;;21.45;9.68;;;27.50;99.90;;;;;;4924093;29;20044;-67
2022/08/26 10:48:31;;;;;;;23.90;10.70;;;27.60;99.90;;;;;;4925102;29;20043;-70
2022/08/26 10:50:57;;;;;;;15.68;8.93;;;27.80;99.90;;;;;;4923363;29;20032;-72
2022/08/26 10:53:48;;;;;;;16.10;8.38;;;27.90;99.90;;;;;;4923828;29;20075;-72
2022/08/26 10:57:12;;;;;;;17.27;9.38;;;28.00;99.90;;;;;;4923303;29;20032;-68
2022/08/26 10:59:50;;;;;;;13.45;8.43;;;28.00;99.90;;;;;;4924070;29;20027;-68
2022/08/26 11:02:30;;;;;;;22.55;7.97;;;27.90;99.90;;;;;;4923482;29;20028;-68
2022/08/26 11:05:02;;;;;;;12.88;7.75;;;27.90;99.90;;;;;;4923985;29;20350;-69
2022/08/26 11:07:44;;;;;;;15.30;7.78;;;27.90;99.90;;;;;;4923579;29;20067;-73
2022/08/26 11:10:39;;;;;;;17.02;7.35;;;28.00;99.90;;;;;;4907673;29;20032;-72
2022/08/26 11:13:05;;;;;;;14.07;7.47;;;28.20;99.90;;;;;;4941189;29;20204;-67
2022/08/26 11:15:31;;;;;;;;;;;28.40;99.90;;;;;;4928035;29;20027;-68
2022/08/26 11:18:34;;;;;;;17.92;7.68;;;28.60;99.90;;;;;;4946807;29;19921;-68
2022/08/26 11:21:00;;;;;;;16.67;7.93;;;28.80;99.90;;;;;;4912579;29;20294;-67
2022/08/26 11:23:31;;;;;;;22.65;7.63;;;28.90;99.90;;;;;;4927337;29;20028;-69
2022/08/26 11:26:00;;;;;;;17.13;7.45;;;29.00;99.90;;;;;;4929260;29;20055;-68
2022/08/26 11:28:43;;;;;;;16.50;6.55;;;28.90;99.90;;;;;;4928625;29;20020;-69
2022/08/26 11:31:22;;;;;;;18.75;7.95;;;28.90;99.90;;;;;;4927147;29;20024;-68
2022/08/26 11:33:57;;;;;;;14.68;6.15;;;29.00;99.90;;;;;;4927436;29;20048;-69
2022/08/26 11:36:46;;;;;;;16.60;6.50;;;29.20;99.90;;;;;;4928861;29;20070;-68
2022/08/26 11:39:13;;;;;;;12.52;6.18;;;29.30;99.90;;;;;;4928954;29;20031;-68
2022/08/26 11:41:43;;;;;;;16.20;6.35;;;29.30;99.90;;;;;;4934616;29;20037;-68
2022/08/26 11:44:09;;;;;;;14.05;7.70;;;29.50;99.90;;;;;;4946276;29;20030;-67
2022/08/26 11:46:36;;;;;;;17.05;6.22;;;29.70;99.90;;;;;;4946526;29;20027;-68
2022/08/26 11:49:05;;;;;;;12.73;6.78;;;29.90;99.90;;;;;;4947296;29;20322;-68
2022/08/26 11:51:32;;;;;;;19.98;7.45;;;30.20;99.90;;;;;;4946523;29;20042;-68
2022/08/26 11:54:18;;;;;;;14.65;6.55;;;30.50;99.90;;;;;;4947171;29;20067;-68
2022/08/26 11:56:47;;;;;;;13.10;6.55;;;30.80;99.90;;;;;;4947068;29;20045;-68
2022/08/26 11:59:32;;;;;;;15.50;6.95;;;31.10;99.90;;;;;;4930595;29;20031;-68
2022/08/26 12:01:57;;;;;;;17.58;6.13;;;31.30;99.90;;;;;;4945828;29;20386;-69
2022/08/26 12:04:32;;;;;;;15.52;6.13;;;31.60;99.90;;;;;;4910235;29;20111;-69
2022/08/26 12:06:59;;;;;;;11.75;6.30;;;31.70;95.40;;;;;;4927207;29;20062;-69
2022/08/26 12:09:35;;;;;;;14.13;6.13;;;32.00;96.40;;;;;;4926938;29;20020;-68
2022/08/26 12:12:22;;;;;;;22.23;6.45;;;32.20;97.30;;;;;;4935488;29;20066;-70
2022/08/26 12:14:47;;;;;;;17.63;5.75;;;32.50;93.10;;;;;;4946965;29;20035;-70
2022/08/26 12:17:18;;;;;;;15.32;6.20;;;32.70;94.00;;;;;;4947131;29;20046;-70
2022/08/26 12:19:44;;;;;;;16.23;5.40;;;33.10;95.30;;;;;;4946905;29;20024;-69
2022/08/26 12:22:26;;;;;;;12.35;5.22;;;33.60;93.90;;;;;;4946324;29;20062;-70
2022/08/26 12:24:59;;;;;;;9.93;5.85;;;34.00;88.90;;;;;;4945377;29;20086;-70
2022/08/26 12:27:31;;;;;;;12.85;5.78;;;34.70;77.10;;;;;;4945638;29;20027;-69
2022/08/26 12:30:04;;;;;;;15.35;5.60;;;35.20;79.00;;;;;;4937079;29;20103;-69
2022/08/26 12:32:30;;;;;;;19.13;6.20;;;36.00;76.10;;;;;;4922065;29;20031;-73
2022/08/26 12:34:56;;;;;;;;;;;36.40;75.20;;;;;;4928688;29;20106;-70
2022/08/26 12:37:22;;;;;;;14.30;6.38;;;36.80;72.40;;;;;;4916196;29;19919;-70
2022/08/26 12:39:48;;;;;;;;;;;37.10;73.30;;;;;;4924274;29;20345;-69
2022/08/26 12:42:14;;;;;;;16.80;6.22;;;37.50;72.70;;;;;;4920843;29;19907;-69
2022/08/26 12:44:57;;;;;;;11.27;4.93;;;37.80;67.50;;;;;;4946233;29;20038;-70
2022/08/26 12:47:41;;;;;;;12.05;4.30;;;37.50;59.50;;;;;;4945537;29;20078;-69
2022/08/26 12:50:21;;;;;;;11.20;4.40;;;36.60;59.80;;;;;;4929531;29;20143;-70
2022/08/26 12:53:26;;;;;;;15.40;5.50;;;35.90;62.90;;;;;;4945280;29;20046;-69
2022/08/26 12:56:27;;;;;;;9.32;4.30;;;35.20;68.60;;;;;;4945694;29;20027;-69